Time;durP1;ratioP1;P1;durP2;ratioP2;P2;SDS_P1;SDS_P2;PMS_P1;PMS_P2;Temp;Humidity;BMP_temperature;BMP_pressure;BME280_temperature;BME280_humidity;BME280_pressure;Samples;Min_cycle;Max_cycle;Signal;HPM_P1;HPM_P2
2021/06/26 00:00:18;;;;;;;;;13.75;13.00;;;;;19.03;67.17;101338.44;5054645;28;45411;-70
2021/06/26 00:02:44;;;;;;;;;10.75;10.75;;;;;19.01;66.94;101345.59;5054466;28;45480;-70
2021/06/26 00:05:11;;;;;;;;;14.75;11.25;;;;;19.02;67.29;101341.16;5054434;28;45479;-70
2021/06/26 00:07:37;;;;;;;;;10.25;10.00;;;;;18.99;67.24;101347.44;5054141;28;46260;-70
2021/06/26 00:10:05;;;;;;;;;11.00;11.00;;;;;18.99;67.53;101339.50;5054009;28;45544;-70
2021/06/26 00:12:30;;;;;;;;;13.75;12.50;;;;;18.97;67.98;101344.00;5054535;28;45336;-71
2021/06/26 00:14:55;;;;;;;;;11.50;10.25;;;;;18.95;67.46;101353.84;5048803;28;45369;-69
2021/06/26 00:17:21;;;;;;;;;8.00;8.00;;;;;18.93;67.12;101344.25;5054208;28;46042;-70
2021/06/26 00:19:46;;;;;;;;;10.75;8.75;;;;;18.95;67.61;101348.53;5054383;28;45287;-70
2021/06/26 00:22:11;;;;;;;;;6.25;6.25;;;;;18.95;67.25;101343.25;5053285;28;45531;-70
2021/06/26 00:24:37;;;;;;;;;6.75;5.75;;;;;18.97;67.41;101345.81;5053821;27;45545;-70
2021/06/26 00:27:02;;;;;;;;;5.75;5.00;;;;;18.99;67.78;101349.25;5054792;28;45394;-69
2021/06/26 00:29:28;;;;;;;;;7.00;7.00;;;;;18.98;67.66;101345.75;5054012;28;45610;-69
2021/06/26 00:31:53;;;;;;;;;8.00;7.00;;;;;18.99;67.51;101342.16;5054295;28;45690;-70
2021/06/26 00:34:19;;;;;;;;;7.00;7.00;;;;;18.96;67.56;101341.44;5054192;28;45555;-69
2021/06/26 00:36:44;;;;;;;;;6.00;6.00;;;;;18.95;67.28;101345.00;5052795;28;47567;-68
2021/06/26 00:39:10;;;;;;;;;7.00;7.00;;;;;18.93;67.44;101346.91;5054713;28;45339;-69
2021/06/26 00:41:35;;;;;;;;;8.00;6.00;;;;;18.91;67.82;101349.59;5054062;28;45399;-68
2021/06/26 00:44:02;;;;;;;;;6.00;6.00;;;;;18.92;67.80;101350.47;5053961;28;45447;-69
2021/06/26 00:46:27;;;;;;;;;7.75;6.50;;;;;18.93;68.03;101350.41;5056074;28;46443;-69
2021/06/26 00:48:52;;;;;;;;;6.00;6.00;;;;;18.94;67.74;101345.94;5057430;28;45351;-68
2021/06/26 00:51:18;;;;;;;;;6.50;5.50;;;;;18.95;67.21;101339.69;5057746;28;45631;-69
2021/06/26 00:53:43;;;;;;;;;6.75;4.75;;;;;18.95;67.71;101335.28;5056663;28;45277;-68
2021/06/26 00:56:09;;;;;;;;;8.50;6.75;;;;;18.92;68.13;101326.59;5056816;28;45898;-69
2021/06/26 00:58:35;;;;;;;;;5.75;5.50;;;;;18.87;68.11;101318.84;5056922;28;46085;-69
2021/06/26 01:01:00;;;;;;;;;4.25;4.00;;;;;18.83;69.04;101320.78;5056762;28;45489;-69
2021/06/26 01:03:26;;;;;;;;;4.25;4.25;;;;;18.82;68.14;101323.50;5057401;28;45425;-69
2021/06/26 01:05:51;;;;;;;;;4.50;4.50;;;;;18.84;68.17;101327.78;5057565;28;46236;-68
2021/06/26 01:08:16;;;;;;;;;5.00;4.00;;;;;18.84;68.26;101330.44;5056734;28;45310;-68
2021/06/26 01:10:42;;;;;;;;;6.00;5.00;;;;;18.84;68.47;101321.63;5057368;28;45532;-68
2021/06/26 01:13:08;;;;;;;;;5.00;4.33;;;;;18.84;68.23;101311.03;5056878;28;45434;-69
2021/06/26 01:15:34;;;;;;;;;4.00;4.00;;;;;18.84;68.86;101311.88;5056762;28;46120;-69
2021/06/26 01:17:59;;;;;;;;;7.00;5.00;;;;;18.87;68.50;101310.88;5057663;28;45370;-69
2021/06/26 01:20:25;;;;;;;;;4.00;4.00;;;;;18.91;68.46;101311.63;5056869;28;45475;-68
2021/06/26 01:22:55;;;;;;;;;3.75;3.75;;;;;18.92;68.18;101308.00;5056719;28;45559;-68
2021/06/26 01:25:22;;;;;;;;;8.00;8.00;;;;;18.93;68.63;101312.41;5056531;28;45428;-68
2021/06/26 01:27:49;;;;;;;;;7.00;7.00;;;;;18.90;68.71;101305.41;5056704;28;47490;-72
2021/06/26 01:30:16;;;;;;;;;4.75;4.75;;;;;18.85;68.97;101297.72;5057238;28;45651;-68
2021/06/26 01:32:42;;;;;;;;;6.25;6.25;;;;;18.82;68.81;101295.16;5056593;28;45787;-69
2021/06/26 01:35:08;;;;;;;;;7.00;7.00;;;;;18.78;69.33;101304.22;5056239;28;45592;-69
2021/06/26 01:37:37;;;;;;;;;9.50;8.00;;;;;18.73;68.57;101303.50;5055479;28;45364;-69
2021/06/26 01:40:03;;;;;;;;;6.75;6.50;;;;;18.71;69.00;101301.84;5056851;28;45424;-70
2021/06/26 01:42:28;;;;;;;;;10.75;9.50;;;;;18.73;69.16;101300.00;5056911;28;45276;-68
2021/06/26 01:44:54;;;;;;;;;8.00;8.00;;;;;18.68;69.46;101293.09;5056822;28;45924;-69
2021/06/26 01:47:19;;;;;;;;;11.25;9.00;;;;;18.66;68.91;101297.66;5056181;28;45504;-68
2021/06/26 01:49:44;;;;;;;;;7.50;6.00;;;;;18.68;69.11;101287.81;5056304;28;45512;-68
2021/06/26 01:52:10;;;;;;;;;8.50;8.50;;;;;18.70;69.26;101295.69;5056372;28;45506;-68
2021/06/26 01:54:39;;;;;;;;;9.00;9.00;;;;;18.72;69.21;101296.50;5056152;28;46212;-68
2021/06/26 01:57:08;;;;;;;;;8.25;8.25;;;;;18.71;69.06;101288.59;5056801;28;45408;-69
2021/06/26 01:59:34;;;;;;;;;4.75;4.75;;;;;18.69;69.03;101294.00;5056614;28;45282;-69
2021/06/26 02:01:59;;;;;;;;;6.75;6.50;;;;;18.66;69.52;101287.03;5056180;28;45618;-68
2021/06/26 02:04:24;;;;;;;;;8.00;7.00;;;;;18.65;69.30;101284.44;5055503;28;47184;-70
2021/06/26 02:06:50;;;;;;;;;7.00;7.00;;;;;18.67;69.25;101290.53;5056067;28;45278;-69
2021/06/26 02:09:15;;;;;;;;;6.50;5.25;;;;;18.66;68.86;101294.09;5056703;28;45499;-69
2021/06/26 02:11:41;;;;;;;;;6.50;5.25;;;;;18.66;69.11;101289.69;5055641;28;45294;-68
2021/06/26 02:14:06;;;;;;;;;7.25;6.00;;;;;18.66;69.00;101283.50;5055694;28;47262;-68
2021/06/26 02:16:31;;;;;;;;;6.50;5.50;;;;;18.67;69.31;101285.25;5056002;28;45326;-69
2021/06/26 02:18:57;;;;;;;;;6.50;5.00;;;;;18.67;69.21;101287.91;5055614;28;45562;-69
2021/06/26 02:21:22;;;;;;;;;3.00;3.00;;;;;18.65;69.51;101290.59;5056083;28;45466;-69
2021/06/26 02:23:48;;;;;;;;;8.00;5.00;;;;;18.66;69.70;101288.81;5055890;28;46023;-68
2021/06/26 02:26:13;;;;;;;;;5.50;5.00;;;;;18.68;69.01;101286.94;5055213;28;45603;-68
2021/06/26 02:28:38;;;;;;;;;36.75;34.25;;;;;18.71;69.58;101296.56;5055594;28;45462;-68
2021/06/26 02:31:04;;;;;;;;;22.75;20.75;;;;;18.74;69.62;101296.44;5055577;28;45566;-69
2021/06/26 02:33:29;;;;;;;;;17.50;17.50;;;;;18.77;69.40;101296.31;5055026;28;46231;-69
2021/06/26 02:35:55;;;;;;;;;18.25;16.50;;;;;18.78;69.47;101287.41;5055434;28;45392;-69
2021/06/26 02:38:20;;;;;;;;;35.00;30.00;;;;;18.80;69.23;101285.56;5055129;28;45444;-69
2021/06/26 02:40:46;;;;;;;;;8.25;8.25;;;;;18.81;68.96;101280.19;5055094;28;45352;-68
2021/06/26 02:43:11;;;;;;;;;7.50;6.50;;;;;18.82;69.55;101281.91;5055128;28;46780;-68
2021/06/26 02:45:36;;;;;;;;;7.50;7.50;;;;;18.85;69.23;101291.50;5055700;28;45481;-68
2021/06/26 02:48:02;;;;;;;;;7.00;7.00;;;;;18.86;69.39;101290.59;5055510;28;45300;-70
2021/06/26 02:50:27;;;;;;;;;5.25;4.75;;;;;18.86;69.32;101288.81;5055348;28;45485;-67
2021/06/26 02:52:53;;;;;;;;;6.75;6.75;;;;;18.89;68.90;101293.97;5055038;28;45531;-68
2021/06/26 02:55:18;;;;;;;;;9.25;8.00;;;;;18.93;69.32;101280.56;5055271;28;46876;-68
2021/06/26 02:57:43;;;;;;;;;5.25;5.25;;;;;18.94;69.66;101280.47;5055617;28;45358;-68
2021/06/26 03:00:09;;;;;;;;;6.00;6.00;;;;;18.97;69.00;101279.47;5056231;28;45381;-68
2021/06/26 03:02:35;;;;;;;;;6.25;6.25;;;;;18.99;69.04;101278.47;5053790;28;46797;-69
2021/06/26 03:05:01;;;;;;;;;14.25;13.50;;;;;19.00;69.09;101277.56;5055088;28;45375;-68
2021/06/26 03:07:26;;;;;;;;;6.25;6.25;;;;;19.02;68.91;101277.47;5054911;28;45360;-69
2021/06/26 03:09:52;;;;;;;;;8.75;6.25;;;;;19.03;68.89;101280.06;5054541;28;45335;-68
2021/06/26 03:12:17;;;;;;;;;7.50;7.25;;;;;19.04;68.76;101280.91;5055236;28;45374;-68
2021/06/26 03:14:43;;;;;;;;;7.75;7.75;;;;;19.00;68.70;101277.56;5054693;28;45401;-69
2021/06/26 03:17:08;;;;;;;;;7.00;5.00;;;;;18.97;69.30;101272.38;5054491;28;45394;-68
2021/06/26 03:19:34;;;;;;;;;7.75;6.75;;;;;18.92;68.79;101274.38;5054988;28;45364;-69
2021/06/26 03:21:59;;;;;;;;;9.00;9.00;;;;;18.90;68.59;101276.25;5054868;28;45778;-68
2021/06/26 03:24:27;;;;;;;;;9.75;7.75;;;;;18.87;68.85;101284.34;5054760;28;45374;-68
2021/06/26 03:26:52;;;;;;;;;8.25;8.25;;;;;18.85;68.90;101278.25;5055041;28;45397;-69
2021/06/26 03:29:18;;;;;;;;;7.50;6.75;;;;;18.83;68.95;101281.00;5054148;28;45368;-69
2021/06/26 03:31:43;;;;;;;;;9.25;9.25;;;;;18.81;69.53;101280.19;5054126;28;45334;-68
2021/06/26 03:34:08;;;;;;;;;8.00;8.00;;;;;18.80;68.88;101281.13;5053541;28;45585;-69
2021/06/26 03:36:34;;;;;;;;;9.50;9.50;;;;;18.80;69.36;101282.91;5055132;28;45292;-68
2021/06/26 03:38:59;;;;;;;;;11.25;8.50;;;;;18.79;69.40;101281.19;5055160;28;45296;-70
2021/06/26 03:41:26;;;;;;;;;9.50;8.25;;;;;18.77;69.01;101278.59;5054154;28;45973;-68
2021/06/26 03:43:57;;;;;;;;;10.50;9.50;;;;;18.73;69.27;101282.28;5054869;28;45566;-68
2021/06/26 03:46:23;;;;;;;;;13.50;10.50;;;;;18.68;69.01;101274.53;5054049;28;45509;-69
2021/06/26 03:48:48;;;;;;;;;12.50;11.50;;;;;18.67;69.11;101275.50;5054670;28;45439;-69
2021/06/26 03:51:13;;;;;;;;;10.75;10.75;;;;;18.62;69.60;101274.84;5054803;28;57916;-69
2021/06/26 03:53:39;;;;;;;;;11.50;10.50;;;;;18.61;69.35;101267.78;5053969;28;45587;-68
2021/06/26 03:56:05;;;;;;;;;13.50;11.50;;;;;18.62;69.49;101274.00;5054606;28;45553;-69
2021/06/26 03:58:30;;;;;;;;;13.25;11.00;;;;;18.60;69.60;101276.69;5054424;28;45371;-69
2021/06/26 04:00:56;;;;;;;;;11.50;10.50;;;;;18.59;69.62;101288.25;5054271;28;46926;-68
2021/06/26 04:03:24;;;;;;;;;10.25;9.75;;;;;18.58;69.40;101285.66;5054903;28;45245;-69
2021/06/26 04:05:50;;;;;;;;;10.75;8.25;;;;;18.53;69.99;101282.34;5054621;28;45316;-68
2021/06/26 04:08:16;;;;;;;;;8.25;7.25;;;;;18.49;69.60;101288.72;5052014;28;45512;-68
2021/06/26 04:10:42;;;;;;;;;13.50;10.50;;;;;18.48;70.04;101284.34;5053337;28;46957;-69
2021/06/26 04:13:07;;;;;;;;;8.00;7.00;;;;;18.49;69.97;101284.25;5054264;28;45488;-68
2021/06/26 04:15:33;;;;;;;;;9.50;7.25;;;;;18.47;70.02;101270.22;5053557;28;45430;-68
2021/06/26 04:17:59;;;;;;;;;8.25;7.75;;;;;18.45;70.09;101283.56;5055004;28;45414;-69
2021/06/26 04:20:25;;;;;;;;;8.75;8.75;;;;;18.45;69.67;101291.50;5054719;28;46369;-69
2021/06/26 04:22:50;;;;;;;;;6.25;6.25;;;;;18.47;69.57;101296.72;5057251;28;45548;-70
2021/06/26 04:25:17;;;;;;;;;6.25;6.25;;;;;18.47;69.81;101299.38;5057877;28;45362;-70
2021/06/26 04:27:43;;;;;;;;;7.00;7.00;;;;;18.47;69.78;101294.06;5057777;28;45394;-70
2021/06/26 04:30:09;;;;;;;;;9.50;6.75;;;;;18.47;69.82;101291.41;5057622;28;46200;-69
2021/06/26 04:32:36;;;;;;;;;9.00;6.75;;;;;18.48;70.00;101301.13;5057558;28;45502;-70
2021/06/26 04:35:03;;;;;;;;;8.50;8.25;;;;;18.47;69.88;101302.03;5057247;28;45302;-70
2021/06/26 04:37:29;;;;;;;;;7.75;7.50;;;;;18.46;69.83;101295.88;5057121;28;45469;-69
2021/06/26 04:39:54;;;;;;;;;12.50;10.25;;;;;18.46;69.84;101303.81;5057223;28;45563;-70
2021/06/26 04:42:20;;;;;;;;;8.50;8.00;;;;;18.48;70.15;101293.16;5057644;28;45348;-69
2021/06/26 04:44:45;;;;;;;;;7.00;7.00;;;;;18.50;70.24;101295.75;5057417;28;45364;-69
2021/06/26 04:47:10;;;;;;;;;11.50;9.50;;;;;18.53;70.26;101291.16;5056849;28;45395;-70
2021/06/26 04:49:36;;;;;;;;;9.25;8.50;;;;;18.59;70.12;101288.25;5056715;28;47094;-70
2021/06/26 04:52:03;;;;;;;;;10.75;10.75;;;;;18.61;69.94;101289.00;5057085;28;45491;-70
2021/06/26 04:54:28;;;;;;;;;11.50;10.50;;;;;18.63;69.86;101289.81;5057115;28;45316;-70
2021/06/26 04:56:54;;;;;;;;;12.50;8.25;;;;;18.65;69.63;101298.56;5056727;28;45419;-69
2021/06/26 04:59:19;;;;;;;;;9.75;8.25;;;;;18.65;69.67;101290.59;5055872;28;47104;-70
2021/06/26 05:01:44;;;;;;;;;7.25;7.25;;;;;18.63;70.20;101295.09;5056096;28;45438;-69
2021/06/26 05:04:10;;;;;;;;;10.75;8.75;;;;;18.66;70.45;101291.47;5056723;28;45863;-70
2021/06/26 05:06:35;;;;;;;;;14.25;13.25;;;;;18.70;70.35;101285.09;5056437;28;45392;-70
2021/06/26 05:09:00;;;;;;;;;13.00;10.25;;;;;18.72;69.48;101288.53;5056750;28;46119;-70
2021/06/26 05:11:26;;;;;;;;;10.25;10.25;;;;;18.75;69.61;101291.03;5056110;28;45494;-70
2021/06/26 05:13:51;;;;;;;;;12.00;12.00;;;;;18.75;69.57;101283.09;5050106;28;45562;-70
2021/06/26 05:16:17;;;;;;;;;11.00;10.00;;;;;18.76;69.86;101290.16;5055151;28;45573;-70
2021/06/26 05:18:42;;;;;;;;;17.25;11.50;;;;;18.77;69.77;101288.38;5056849;28;46144;-70
2021/06/26 05:21:07;;;;;;;;;10.50;10.50;;;;;18.77;69.63;101278.59;5057274;28;45350;-69
2021/06/26 05:23:33;;;;;;;;;15.25;14.75;;;;;18.78;69.74;101287.41;5056148;28;45905;-69
2021/06/26 05:25:58;;;;;;;;;17.50;12.75;;;;;18.76;69.89;101283.94;5055636;28;45519;-69
2021/06/26 05:28:24;;;;;;;;;14.25;12.75;;;;;18.76;69.89;101291.91;5055632;28;46815;-70
2021/06/26 05:30:50;;;;;;;;;14.00;11.25;;;;;18.80;69.73;101299.69;5055648;28;45562;-70
2021/06/26 05:33:15;;;;;;;;;12.25;11.25;;;;;18.84;69.64;101295.13;5057201;28;45375;-70
2021/06/26 05:35:41;;;;;;;;;10.00;9.50;;;;;18.86;69.96;101296.75;5055842;28;45751;-70
2021/06/26 05:38:06;;;;;;;;;11.00;10.50;;;;;18.87;68.92;101301.13;5055584;28;46115;-70
2021/06/26 05:40:32;;;;;;;;;11.00;11.00;;;;;18.85;69.34;101300.34;5055686;28;45452;-69
2021/06/26 05:42:57;;;;;;;;;9.25;9.00;;;;;18.85;68.98;101304.78;5055655;28;45578;-69
2021/06/26 05:45:23;;;;;;;;;10.50;10.50;;;;;18.84;69.28;101303.91;5055965;28;45345;-70
2021/06/26 05:47:48;;;;;;;;;13.00;12.00;;;;;18.83;68.76;101303.97;5055975;28;45979;-70
2021/06/26 05:50:14;;;;;;;;;13.25;11.50;;;;;18.83;69.19;101301.31;5055433;28;45472;-69
2021/06/26 05:52:47;;;;;;;;;19.00;18.25;;;;;18.86;69.32;101307.38;5055175;28;45376;-69
2021/06/26 05:55:13;;;;;;;;;13.00;13.00;;;;;18.93;68.76;101305.31;5054797;28;45272;-69
2021/06/26 05:57:40;;;;;;;;;14.00;13.25;;;;;18.94;68.50;101307.00;5054978;28;46799;-68
2021/06/26 06:00:05;;;;;;;;;15.25;12.75;;;;;18.94;68.85;101306.16;5056217;28;45397;-68
2021/06/26 06:02:31;;;;;;;;;13.00;11.50;;;;;18.96;68.79;101302.50;5055418;28;45492;-69
2021/06/26 06:04:56;;;;;;;;;13.00;10.75;;;;;18.99;68.66;101312.97;5055745;28;45544;-69
2021/06/26 06:07:21;;;;;;;;;12.25;12.25;;;;;18.97;68.62;101312.16;5054531;28;45379;-69
2021/06/26 06:09:47;;;;;;;;;11.75;9.50;;;;;18.98;68.68;101300.63;5052618;28;45477;-69
2021/06/26 06:12:12;;;;;;;;;5.50;5.50;;;;;19.01;67.86;101307.59;5054804;28;45573;-69
2021/06/26 06:14:37;;;;;;;;;4.75;4.75;;;;;18.99;67.58;101307.66;5054909;28;45499;-69
2021/06/26 06:17:03;;;;;;;;;4.25;4.25;;;;;18.98;67.00;101308.59;5054605;28;45405;-68
2021/06/26 06:19:28;;;;;;;;;4.75;4.75;;;;;18.97;66.92;101316.63;5054058;28;45519;-68
2021/06/26 06:21:54;;;;;;;;;5.25;5.25;;;;;18.97;67.18;101306.84;5054952;28;45458;-68
2021/06/26 06:24:19;;;;;;;;;5.75;4.50;;;;;18.97;67.52;101314.81;5055376;28;45356;-70
2021/06/26 06:26:44;;;;;;;;;5.25;5.25;;;;;18.97;67.41;101324.56;5051566;28;45376;-69
2021/06/26 06:29:10;;;;;;;;;5.00;5.00;;;;;18.97;66.84;101319.28;5052697;28;45599;-70
2021/06/26 06:31:35;;;;;;;;;5.50;5.50;;;;;18.97;67.10;101317.47;5046241;28;45474;-68
2021/06/26 06:34:00;;;;;;;;;7.75;6.00;;;;;19.02;67.19;101317.25;5049447;28;45519;-69
2021/06/26 06:36:26;;;;;;;;;6.50;5.50;;;;;19.03;67.01;101326.97;5054829;28;45457;-68
2021/06/26 06:38:51;;;;;;;;;8.25;7.00;;;;;19.03;67.21;101326.97;5054772;28;45447;-69
2021/06/26 06:41:17;;;;;;;;;7.25;7.25;;;;;19.03;67.77;101317.19;5054116;28;45642;-69
2021/06/26 06:43:43;;;;;;;;;9.25;7.50;;;;;19.05;67.59;101320.66;5053808;28;45281;-69
2021/06/26 06:46:08;;;;;;;;;7.25;5.00;;;;;19.06;67.16;101317.06;5054534;28;46420;-69
2021/06/26 06:48:34;;;;;;;;;4.50;4.50;;;;;19.10;66.92;101308.03;5054697;28;45497;-69
2021/06/26 06:50:59;;;;;;;;;6.75;6.50;;;;;19.19;67.07;101304.09;5050964;28;45508;-69
2021/06/26 06:53:24;;;;;;;;;5.75;5.50;;;;;19.31;67.19;101305.31;5051644;28;45354;-69
2021/06/26 06:55:57;;;;;;;;;9.00;8.75;;;;;19.43;67.26;101302.06;5053392;28;45450;-69
2021/06/26 06:58:22;;;;;;;;;7.50;6.50;;;;;19.53;66.67;101310.44;5054490;28;45299;-68
2021/06/26 07:00:48;;;;;;;;;7.00;6.00;;;;;19.58;66.47;101312.88;5054342;28;46922;-68
2021/06/26 07:03:13;;;;;;;;;9.50;8.50;;;;;19.64;67.02;101315.19;5054646;28;45555;-69
2021/06/26 07:05:39;;;;;;;;;7.25;7.00;;;;;19.66;66.54;101316.00;5053446;28;45979;-69
2021/06/26 07:08:05;;;;;;;;;8.00;8.00;;;;;19.67;66.73;101315.94;5053288;28;45535;-68
2021/06/26 07:10:30;;;;;;;;;7.25;7.25;;;;;19.66;66.23;101329.28;5051829;28;45485;-68
2021/06/26 07:12:55;;;;;;;;;10.50;9.00;;;;;19.61;65.97;101326.84;5051706;28;45390;-69
2021/06/26 07:15:21;;;;;;;;;9.00;8.75;;;;;19.59;66.47;101322.53;5052010;28;47021;-69
2021/06/26 07:17:46;;;;;;;;;13.25;9.25;;;;;19.57;66.25;101329.72;5054262;28;45379;-69
2021/06/26 07:20:12;;;;;;;;;9.25;9.25;;;;;19.55;65.85;101326.31;5054173;28;45440;-69
2021/06/26 07:22:37;;;;;;;;;7.25;7.25;;;;;19.49;65.91;101330.09;5054218;28;45438;-69
2021/06/26 07:25:03;;;;;;;;;10.00;10.00;;;;;19.44;65.92;101334.78;5053609;28;45480;-69
2021/06/26 07:27:29;;;;;;;;;8.75;8.00;;;;;19.38;66.26;101332.38;5053674;28;45340;-68
2021/06/26 07:29:54;;;;;;;;;7.75;6.50;;;;;19.33;66.18;101329.97;5048270;28;45420;-69
2021/06/26 07:32:20;;;;;;;;;12.00;9.75;;;;;19.27;66.75;101328.47;5054122;28;45478;-69
2021/06/26 07:34:45;;;;;;;;;9.50;8.50;;;;;19.29;66.54;101333.72;5054401;28;45383;-69
2021/06/26 07:37:10;;;;;;;;;8.25;8.25;;;;;19.28;67.01;101331.97;5052551;28;45575;-72
2021/06/26 07:39:36;;;;;;;;;8.25;8.25;;;;;19.29;66.56;101326.59;5050007;28;45473;-80
2021/06/26 07:42:01;;;;;;;;;7.00;6.00;;;;;19.33;66.07;101332.63;5052410;28;45666;-79
2021/06/26 07:44:27;;;;;;;;;9.50;6.75;;;;;19.35;66.39;101329.91;5054464;28;46456;-80
2021/06/26 07:46:52;;;;;;;;;6.25;6.25;;;;;19.37;66.06;101330.69;5052735;28;45418;-80
2021/06/26 07:49:18;;;;;;;;;7.00;7.00;;;;;19.43;66.30;101330.41;5052813;28;45694;-75
2021/06/26 07:51:43;;;;;;;;;9.75;8.75;;;;;19.50;66.43;101332.69;5053640;28;45517;-75
2021/06/26 07:54:09;;;;;;;;;5.50;5.00;;;;;19.55;66.24;101337.78;5053431;28;45446;-76
2021/06/26 07:56:34;;;;;;;;;8.50;8.25;;;;;19.56;65.79;101330.66;5053004;28;45388;-80
2021/06/26 07:59:00;;;;;;;;;6.00;6.00;;;;;19.57;66.02;101332.38;5053048;28;45520;-78
2021/06/26 08:01:26;;;;;;;;;7.00;5.75;;;;;19.56;65.97;101320.91;5053373;28;45429;-75
2021/06/26 08:03:51;;;;;;;;;10.50;10.00;;;;;19.58;66.31;101323.50;5051594;28;45285;-74
2021/06/26 08:06:16;;;;;;;;;10.50;10.50;;;;;19.63;65.99;101322.31;5049213;28;45426;-73
2021/06/26 08:08:42;;;;;;;;;8.50;7.50;;;;;19.66;65.89;101318.66;5052335;28;45390;-74
2021/06/26 08:11:07;;;;;;;;;11.00;8.25;;;;;19.72;66.01;101323.72;5052377;28;45474;-73
2021/06/26 08:13:33;;;;;;;;;8.75;8.75;;;;;19.79;65.83;101321.63;5052122;28;47462;-74
2021/06/26 08:15:58;;;;;;;;;8.50;8.50;;;;;19.86;65.57;101313.25;5051019;28;45431;-73
2021/06/26 08:18:23;;;;;;;;;12.75;12.00;;;;;19.96;65.95;101313.66;5052297;28;45721;-74
2021/06/26 08:20:49;;;;;;;;;9.50;9.50;;;;;20.08;65.59;101318.34;5051989;28;45472;-73
2021/06/26 08:23:14;;;;;;;;;11.75;9.00;;;;;20.17;65.14;101316.16;5051895;28;45901;-73
2021/06/26 08:25:39;;;;;;;;;11.00;11.00;;;;;20.23;64.84;101311.38;5052472;28;45564;-74
2021/06/26 08:28:05;;;;;;;;;8.25;8.25;;;;;20.35;65.04;101307.22;5052871;28;45492;-70
2021/06/26 08:30:31;;;;;;;;;11.25;11.25;;;;;20.51;64.54;101318.78;5052180;28;45557;-69
2021/06/26 08:32:57;;;;;;;;;6.25;6.25;;;;;20.63;63.71;101314.66;5052378;28;46360;-72
2021/06/26 08:35:23;;;;;;;;;11.00;9.00;;;;;20.73;63.47;101318.53;5052102;28;45370;-70
2021/06/26 08:37:50;;;;;;;;;6.25;6.25;;;;;20.82;63.39;101316.34;5051767;28;45299;-70
2021/06/26 08:40:16;;;;;;;;;8.00;8.00;;;;;20.90;62.98;101312.28;5052674;28;45478;-72
2021/06/26 08:42:43;;;;;;;;;7.00;6.00;;;;;20.96;62.39;101317.28;5051606;28;45477;-69
2021/06/26 08:45:11;;;;;;;;;10.25;9.75;;;;;21.07;62.63;101316.72;5051848;28;45457;-69
2021/06/26 08:47:37;;;;;;;;;9.50;9.50;;;;;21.24;62.38;101314.91;5050856;28;45260;-69
2021/06/26 08:50:05;;;;;;;;;9.00;7.25;;;;;21.28;61.73;101321.78;5051767;28;45529;-70
2021/06/26 08:52:30;;;;;;;;;9.00;9.00;;;;;21.21;61.45;101323.91;5052330;28;46382;-70
2021/06/26 08:54:55;;;;;;;;;5.75;5.75;;;;;21.13;61.05;101331.47;5051443;28;45362;-68
2021/06/26 08:57:29;;;;;;;;;10.00;7.50;;;;;21.03;60.94;101339.13;5051995;28;45315;-69
2021/06/26 08:59:55;;;;;;;;;8.50;7.25;;;;;20.99;61.46;101332.22;5052237;28;45572;-70
2021/06/26 09:02:22;;;;;;;;;7.00;7.00;;;;;21.00;61.62;101333.97;5050718;28;47315;-70
2021/06/26 09:04:47;;;;;;;;;10.25;8.50;;;;;21.04;61.88;101324.84;5049941;28;45362;-70
2021/06/26 09:07:13;;;;;;;;;9.50;7.50;;;;;21.13;61.40;101319.03;5053724;28;45468;-71
2021/06/26 09:09:38;;;;;;;;;9.75;7.75;;;;;21.28;61.12;101319.13;5055381;28;45373;-70
2021/06/26 09:12:05;;;;;;;;;9.75;9.75;;;;;21.49;60.76;101322.41;5055671;28;45403;-71
2021/06/26 09:14:32;;;;;;;;;6.33;6.00;;;;;21.69;60.13;101313.28;5055725;28;45604;-70
2021/06/26 09:16:58;;;;;;;;;6.33;6.33;;;;;21.75;59.32;101318.25;5054989;28;45534;-69
2021/06/26 09:19:24;;;;;;;;;7.67;7.67;;;;;21.78;59.35;101312.75;5054981;28;45224;-69
2021/06/26 09:22:02;;;;;;;;;11.00;10.25;;;;;21.90;59.56;101314.69;5055376;28;45390;-69
2021/06/26 09:24:36;;;;;;;;;7.00;7.00;;;;;22.15;58.75;101308.78;5052887;28;45471;-70
2021/06/26 09:27:02;;;;;;;;;7.33;5.67;;;;;22.40;58.40;101302.00;5054419;28;45352;-70
2021/06/26 09:29:28;;;;;;;;;7.00;6.00;;;;;22.55;57.17;101308.19;5054843;28;45404;-68
2021/06/26 09:31:59;;;;;;;;;8.00;6.50;;;;;22.55;56.80;101308.19;5054209;28;45863;-68
2021/06/26 09:34:45;;;;;;;;;7.67;6.67;;;;;22.57;56.76;101293.84;5054716;28;45330;-68
2021/06/26 09:37:18;;;;;;;;;9.00;7.67;;;;;22.80;56.62;101302.19;5055225;28;45338;-68
2021/06/26 09:39:45;;;;;;;;;7.00;7.00;;;;;23.01;56.14;101300.03;5055304;28;45560;-69
2021/06/26 09:42:18;;;;;;;;;6.67;6.67;;;;;23.23;55.31;101312.84;5054856;28;46279;-70
2021/06/26 09:44:51;;;;;;;;;7.33;5.33;;;;;23.42;54.12;101297.34;5055010;28;45429;-69
2021/06/26 09:47:34;;;;;;;;;6.50;6.50;;;;;23.62;53.93;101295.16;5054772;28;45574;-67
2021/06/26 09:50:06;;;;;;;;;8.67;8.33;;;;;23.82;53.31;101296.56;5054487;28;45473;-69
2021/06/26 09:52:54;;;;;;;;;7.67;7.67;;;;;23.96;53.19;101304.50;5055019;28;46368;-68
2021/06/26 09:55:26;;;;;;;;;7.00;7.00;;;;;24.10;52.05;101308.94;5055011;28;45701;-68
2021/06/26 09:57:53;;;;;;;;;6.67;6.67;;;;;24.07;52.27;101314.47;5039410;28;45470;-69
2021/06/26 10:00:21;;;;;;;;;7.67;7.67;;;;;23.93;51.69;101321.63;5054487;28;45391;-69
2021/06/26 10:02:47;;;;;;;;;8.33;7.33;;;;;23.81;52.29;101325.13;5053695;28;47219;-69
2021/06/26 10:05:14;;;;;;;;;9.00;9.00;;;;;23.78;52.47;101329.81;5054567;28;45368;-69
2021/06/26 10:07:41;;;;;;;;;7.00;5.67;;;;;23.70;52.03;101335.63;5054361;28;45445;-69
2021/06/26 10:10:10;;;;;;;;;7.67;7.67;;;;;23.55;51.12;101329.47;5054898;28;45573;-68
2021/06/26 10:12:36;;;;;;;;;5.00;5.00;;;;;23.37;50.54;101339.53;5053801;28;45973;-69
2021/06/26 10:15:03;;;;;;;;;5.33;5.33;;;;;23.24;50.69;101327.91;5054921;28;45567;-69
2021/06/26 10:17:29;;;;;;;;;6.00;5.33;;;;;23.15;51.48;101324.03;5053569;28;45298;-68
2021/06/26 10:19:56;;;;;;;;;6.33;5.00;;;;;23.14;51.39;101326.78;5053935;28;45391;-67
2021/06/26 10:22:21;;;;;;;;;8.00;4.67;;;;;23.10;51.26;101328.81;5053986;28;46265;-69
2021/06/26 10:24:49;;;;;;;;;4.33;4.33;;;;;23.10;51.00;101326.16;5053855;28;45450;-67
2021/06/26 10:27:16;;;;;;;;;8.00;5.67;;;;;23.15;50.76;101326.72;5054597;28;45455;-67
2021/06/26 10:29:41;;;;;;;;;8.00;7.00;;;;;23.30;50.87;101324.88;5053149;28;45355;-68
2021/06/26 10:32:11;;;;;;;;;4.50;4.50;;;;;23.45;50.82;101325.69;5052070;28;47316;-69
2021/06/26 10:34:47;;;;;;;;;6.67;6.00;;;;;23.49;50.80;101322.69;5053243;28;45549;-69
2021/06/26 10:37:17;;;;;;;;;7.33;7.33;;;;;23.63;50.76;101313.78;5053780;28;45476;-67
2021/06/26 10:39:43;;;;;;;;;9.00;9.00;;;;;23.82;50.41;101309.94;5054597;28;45289;-68
2021/06/26 10:42:10;;;;;;;;;8.50;8.50;;;;;24.13;50.03;101312.25;5054375;28;47134;-67
2021/06/26 10:44:52;;;;;;;;;13.00;13.00;;;;;24.44;48.91;101317.31;5054471;28;45335;-68
2021/06/26 10:47:40;;;;;;;;;13.25;13.25;;;;;24.61;48.32;101314.34;5053612;28;45311;-68
2021/06/26 10:50:14;;;;;;;;;10.50;8.00;;;;;24.78;49.01;101322.03;5053707;28;45538;-68
2021/06/26 10:52:51;;;;;;;;;7.67;7.67;;;;;24.96;48.21;101316.34;5054031;28;45407;-69
2021/06/26 10:55:29;;;;;;;;;9.33;9.33;;;;;25.17;47.79;101312.16;5053404;28;45374;-68
2021/06/26 10:57:55;;;;;;;;;7.67;6.67;;;;;25.33;47.51;101311.84;5038369;28;45408;-69
2021/06/26 11:00:38;;;;;;;;;11.33;10.33;;;;;25.52;46.53;101313.19;5053278;28;45300;-69
2021/06/26 11:03:06;;;;;;;;;9.00;9.00;;;;;25.54;46.79;101316.63;5053948;28;45416;-68
2021/06/26 11:05:34;;;;;;;;;8.00;8.00;;;;;25.46;46.30;101302.91;5052380;28;45591;-68
2021/06/26 11:08:00;;;;;;;;;8.00;8.00;;;;;25.33;46.60;101308.34;5053558;28;45364;-69
2021/06/26 11:10:26;;;;;;;;;8.25;8.25;;;;;25.15;46.30;101307.84;5052913;28;45465;-69
2021/06/26 11:12:53;;;;;;;;;5.67;5.67;;;;;25.00;45.95;101305.31;5053469;28;46037;-70
2021/06/26 11:15:30;;;;;;;;;6.67;6.67;;;;;24.84;46.09;101303.81;5053085;28;45365;-69
2021/06/26 11:17:57;;;;;;;;;8.67;8.67;;;;;24.85;46.44;101300.19;5053551;28;45403;-68